Terminal Aerodrome Forecast
Issued by NWS

Home | Current Version | Previous Version | Text Only | Print | Product List | Glossary On
Versions: 1 2 3 4 5 6 7 8 9 10 11 12 13 14
835
FTUS43 KJKL 152320
TAFSJS
TAF
KSJS 152320Z 1600/1624 23005KT P6SM OVC040
     FM160800 22005KT P6SM FEW120=

USA.gov is the U.S. government's official web portal to all federal, state and local government web resources and services.